Time;durP1;ratioP1;P1;durP2;ratioP2;P2;SDS_P1;SDS_P2;PMS_P1;PMS_P2;Temp;Humidity;BMP_temperature;BMP_pressure;BME280_temperature;BME280_humidity;BME280_pressure;Samples;Min_cycle;Max_cycle;Signal;HPM_P1;HPM_P2
2022/07/09 00:01:41;;;;;;;1.92;1.40;;;;;;;18.76;64.52;101560.41;4936754;28;20052;-72
2022/07/09 00:04:08;;;;;;;1.95;1.35;;;;;;;18.76;64.42;101563.09;4938419;28;20504;-71
2022/07/09 00:06:35;;;;;;;2.75;1.10;;;;;;;18.76;64.41;101568.44;4929823;28;20501;-71
2022/07/09 00:09:02;;;;;;;1.48;1.13;;;;;;;18.73;64.72;101557.94;4934323;28;20054;-71
2022/07/09 00:11:28;;;;;;;2.13;1.20;;;;;;;18.53;64.82;101529.63;4929553;28;20043;-71
2022/07/09 00:13:55;;;;;;;4.20;1.83;;;;;;;18.63;64.77;101546.91;4934616;28;20515;-71
2022/07/09 00:16:21;;;;;;;1.38;1.10;;;;;;;18.64;65.07;101547.75;4927415;28;20055;-72
2022/07/09 00:18:48;;;;;;;2.55;1.60;;;;;;;18.66;65.19;101551.22;4931909;28;20057;-72
2022/07/09 00:21:15;;;;;;;2.78;1.40;;;;;;;18.64;65.11;101537.03;4928062;28;20047;-73
2022/07/09 00:23:41;;;;;;;2.80;1.50;;;;;;;18.48;65.04;101519.16;4939061;29;20051;-72
2022/07/09 00:26:08;;;;;;;2.78;1.42;;;;;;;18.54;65.41;101545.63;4924681;28;20118;-71
2022/07/09 00:28:35;;;;;;;3.83;1.50;;;;;;;18.51;65.74;101531.53;4929407;28;20396;-73
2022/07/09 00:31:02;;;;;;;4.00;1.60;;;;;;;18.42;65.74;101510.63;4931529;28;20374;-72
2022/07/09 00:33:29;;;;;;;2.97;1.85;;;;;;;18.49;65.79;101536.13;4930572;28;20126;-71
2022/07/09 00:35:55;;;;;;;4.72;2.38;;;;;;;18.42;65.90;101524.91;4935847;28;20052;-72
2022/07/09 00:38:22;;;;;;;3.40;1.90;;;;;;;18.41;66.14;101525.91;4930137;28;20505;-71
2022/07/09 00:40:50;;;;;;;3.60;1.80;;;;;;;18.22;66.28;101501.16;4930295;28;20056;-71
2022/07/09 00:43:21;;;;;;;4.22;1.92;;;;;;;18.36;66.71;101525.31;4925732;28;20162;-73
2022/07/09 00:45:48;;;;;;;4.18;1.85;;;;;;;18.30;66.95;101533.72;4927717;28;20527;-70
2022/07/09 00:48:15;;;;;;;4.25;1.45;;;;;;;18.22;66.92;101522.59;4933169;28;20093;-72
2022/07/09 00:50:43;;;;;;;3.28;1.70;;;;;;;18.23;67.20;101530.56;4927368;28;20052;-72
2022/07/09 00:53:13;;;;;;;1.95;1.70;;;;;;;18.25;67.18;101517.06;4932088;28;20552;-72
2022/07/09 00:55:40;;;;;;;6.70;1.70;;;;;;;18.11;67.40;101495.56;4926783;28;20554;-71
2022/07/09 00:58:09;;;;;;;3.88;1.58;;;;;;;18.19;67.30;101506.69;4927685;28;20618;-71
2022/07/09 01:00:35;;;;;;;5.05;1.42;;;;;;;18.12;67.65;101508.00;4935094;28;20186;-71
2022/07/09 01:03:02;;;;;;;4.15;1.70;;;;;;;18.10;67.69;101513.47;4935194;28;20212;-71
2022/07/09 01:05:35;;;;;;;2.08;1.33;;;;;;;18.08;68.04;101520.78;4935341;28;20059;-71
2022/07/09 01:08:06;;;;;;;2.35;1.50;;;;;;;18.05;68.11;101509.38;4934503;28;20414;-71
2022/07/09 01:10:34;;;;;;;4.88;1.55;;;;;;;18.09;68.26;101510.91;4939524;28;20051;-71
2022/07/09 01:13:03;;;;;;;3.03;1.77;;;;;;;18.06;68.23;101505.72;4929411;28;20065;-71
2022/07/09 01:15:30;;;;;;;3.08;1.50;;;;;;;18.09;68.27;101511.78;4930180;28;21172;-71
2022/07/09 01:17:58;;;;;;;3.58;1.65;;;;;;;18.02;68.33;101506.84;4935259;28;20477;-71
2022/07/09 01:20:26;;;;;;;5.70;2.08;;;;;;;17.83;68.59;101486.53;4932017;28;20205;-71
2022/07/09 01:22:53;;;;;;;4.32;1.60;;;;;;;17.95;68.92;101500.13;4933016;28;20083;-71
2022/07/09 01:25:31;;;;;;;7.70;2.20;;;;;;;17.93;69.26;101505.59;4934524;28;20044;-72
2022/07/09 01:27:58;;;;;;;4.68;2.15;;;;;;;17.89;69.60;101504.06;4927223;28;20751;-72
2022/07/09 01:30:26;;;;;;;2.70;1.70;;;;;;;17.89;69.26;101501.38;4933938;28;20115;-71
2022/07/09 01:32:53;;;;;;;3.53;1.92;;;;;;;17.87;69.42;101498.78;4934208;28;20102;-71
2022/07/09 01:35:21;;;;;;;3.78;2.00;;;;;;;17.75;69.80;101494.16;4933693;28;20055;-71
2022/07/09 01:37:47;;;;;;;3.65;1.88;;;;;;;17.65;70.19;101494.78;4931068;28;20071;-71
2022/07/09 01:40:14;;;;;;;6.25;2.28;;;;;;;17.58;70.61;101496.94;4934906;28;20051;-72
2022/07/09 01:42:41;;;;;;;4.53;2.17;;;;;;;17.51;70.76;101487.53;4931420;28;20104;-71
2022/07/09 01:45:08;;;;;;;4.40;2.13;;;;;;;17.47;70.58;101494.88;4937570;28;20067;-72
2022/07/09 01:47:35;;;;;;;3.22;2.25;;;;;;;17.39;71.33;101496.28;4936430;28;20056;-73
2022/07/09 01:50:02;;;;;;;3.30;2.00;;;;;;;17.36;71.64;101497.31;4929165;28;20067;-72
2022/07/09 01:52:29;;;;;;;3.85;2.45;;;;;;;17.32;71.67;101497.56;4933538;28;20070;-72
2022/07/09 01:54:57;;;;;;;3.33;2.50;;;;;;;17.31;72.03;101493.19;4930620;28;20044;-72
2022/07/09 01:57:23;;;;;;;4.70;2.10;;;;;;;17.33;72.27;101497.50;4930299;28;20051;-71
2022/07/09 01:59:50;;;;;;;4.03;2.35;;;;;;;17.37;71.88;101485.66;4932659;28;20043;-74
2022/07/09 02:02:17;;;;;;;3.50;2.45;;;;;;;17.36;71.78;101483.94;4940260;28;20055;-71
2022/07/09 02:04:45;;;;;;;4.63;2.25;;;;;;;17.24;71.71;101457.00;4924055;28;20047;-71
2022/07/09 02:07:12;;;;;;;3.03;2.30;;;;;;;17.38;71.63;101483.84;4931680;28;20051;-72
2022/07/09 02:09:40;;;;;;;3.95;2.40;;;;;;;17.00;71.75;101425.34;4933847;28;20098;-72
2022/07/09 02:12:07;;;;;;;5.15;2.50;;;;;;;17.25;72.21;101469.44;4931770;28;20084;-72
2022/07/09 02:14:33;;;;;;;5.65;2.45;;;;;;;17.30;71.82;101465.56;4933178;28;20051;-71
2022/07/09 02:17:00;;;;;;;4.18;2.38;;;;;;;17.21;71.82;101449.16;4929121;28;20405;-71
2022/07/09 02:19:26;;;;;;;3.10;2.38;;;;;;;17.37;71.78;101471.41;4926119;28;20099;-72
2022/07/09 02:21:53;;;;;;;4.57;2.47;;;;;;;17.34;71.62;101463.56;4933993;28;20105;-71
2022/07/09 02:24:20;;;;;;;4.32;2.42;;;;;;;17.29;71.80;101454.94;4930525;28;20052;-73
2022/07/09 02:26:46;;;;;;;3.45;2.45;;;;;;;17.34;71.84;101460.88;4930814;28;20593;-71
2022/07/09 02:29:13;;;;;;;3.55;2.42;;;;;;;17.32;72.08;101463.63;4928192;28;20052;-71
2022/07/09 02:31:40;;;;;;;5.80;2.15;;;;;;;17.30;71.83;101459.34;4934788;28;20048;-72
2022/07/09 02:34:06;;;;;;;4.13;2.20;;;;;;;17.22;72.64;101462.44;4932597;28;20051;-73
2022/07/09 02:36:33;;;;;;;7.15;2.40;;;;;;;17.17;72.44;101460.03;4931933;28;20055;-72
2022/07/09 02:39:00;;;;;;;3.92;2.22;;;;;;;17.07;72.86;101458.84;4929045;28;20047;-72
2022/07/09 02:41:26;;;;;;;5.47;2.20;;;;;;;17.10;73.33;101469.38;4937644;28;20056;-71
2022/07/09 02:43:53;;;;;;;3.90;2.42;;;;;;;16.94;73.71;101455.16;4931376;28;20139;-72
2022/07/09 02:46:19;;;;;;;3.78;2.25;;;;;;;17.03;73.83;101462.63;4932767;28;20058;-72
2022/07/09 02:48:46;;;;;;;5.80;2.22;;;;;;;17.10;73.97;101466.72;4928828;28;20131;-72
2022/07/09 02:51:13;;;;;;;4.50;2.08;;;;;;;17.04;73.90;101459.00;4933515;28;20075;-73
2022/07/09 02:53:40;;;;;;;3.83;2.40;;;;;;;16.77;74.24;101425.81;4931431;28;20051;-72
2022/07/09 02:56:07;;;;;;;4.35;2.20;;;;;;;16.95;74.38;101467.56;4929328;28;20048;-71
2022/07/09 02:58:33;;;;;;;4.47;2.80;;;;;;;16.96;74.37;101461.28;4931357;28;20552;-71
2022/07/09 03:01:01;;;;;;;5.30;2.50;;;;;;;16.93;74.70;101460.56;4932350;28;20489;-70
2022/07/09 03:03:27;;;;;;;4.65;2.47;;;;;;;16.90;75.10;101458.94;4938062;28;20138;-72
2022/07/09 03:05:54;;;;;;;4.70;2.13;;;;;;;16.82;75.20;101459.38;4930279;28;20520;-72
2022/07/09 03:08:21;;;;;;;3.38;2.15;;;;;;;16.87;75.36;101461.78;4923035;28;20468;-72
2022/07/09 03:10:49;;;;;;;4.10;2.40;;;;;;;16.92;75.29;101462.38;4924551;28;20053;-72
2022/07/09 03:13:16;;;;;;;3.47;2.40;;;;;;;16.87;75.25;101440.38;4934088;28;20092;-72
2022/07/09 03:15:42;;;;;;;4.07;2.50;;;;;;;16.87;75.43;101455.56;4931124;28;20139;-72
2022/07/09 03:18:09;;;;;;;4.63;2.65;;;;;;;16.87;75.42;101456.44;4930406;28;20052;-71
2022/07/09 03:20:37;;;;;;;5.35;2.50;;;;;;;16.87;75.74;101456.44;4931945;28;20055;-74
2022/07/09 03:23:04;;;;;;;5.95;2.47;;;;;;;16.90;75.81;101458.94;4929540;28;20477;-71
2022/07/09 03:25:31;;;;;;;3.03;2.20;;;;;;;16.85;75.68;101452.97;4929553;28;20472;-72
2022/07/09 03:27:58;;;;;;;5.90;2.55;;;;;;;16.81;75.72;101451.44;4929792;28;20516;-71
2022/07/09 03:30:24;;;;;;;4.80;2.95;;;;;;;16.81;76.11;101454.13;4928846;28;20083;-71
2022/07/09 03:32:51;;;;;;;3.30;2.47;;;;;;;16.81;75.89;101451.44;4930189;28;20055;-73
2022/07/09 03:35:18;;;;;;;4.60;2.90;;;;;;;16.88;75.67;101444.78;4925386;28;20056;-71
2022/07/09 03:37:44;;;;;;;7.95;3.00;;;;;;;16.94;75.44;101449.78;4927471;28;20122;-73
2022/07/09 03:40:11;;;;;;;4.13;2.75;;;;;;;16.95;75.18;101446.16;4931349;28;20543;-74
2022/07/09 03:42:38;;;;;;;4.20;2.60;;;;;;;16.93;75.11;101442.72;4927852;28;20118;-71
2022/07/09 03:45:05;;;;;;;5.10;2.60;;;;;;;16.97;75.07;101446.94;4929094;28;20052;-71
2022/07/09 03:47:32;;;;;;;4.57;2.83;;;;;;;16.97;75.36;101449.63;4932960;28;20071;-73
2022/07/09 03:49:58;;;;;;;4.13;2.45;;;;;;;16.88;75.27;101436.75;4925908;28;20468;-71
2022/07/09 03:52:25;;;;;;;4.13;2.50;;;;;;;16.89;75.53;101449.19;4928354;28;20114;-71
2022/07/09 03:54:52;;;;;;;5.18;2.70;;;;;;;16.97;75.59;101449.63;4930166;28;20106;-71
2022/07/09 03:57:18;;;;;;;4.75;2.38;;;;;;;16.90;75.24;101429.50;4930093;28;20048;-73
2022/07/09 03:59:45;;;;;;;6.03;2.80;;;;;;;16.98;75.00;101443.31;4930455;28;20052;-71
2022/07/09 04:02:11;;;;;;;2.58;2.33;;;;;;;16.87;75.28;101428.81;4937392;28;20055;-71
2022/07/09 04:04:40;;;;;;;4.28;2.28;;;;;;;17.03;75.38;101446.59;4929591;28;20455;-72
2022/07/09 04:07:07;;;;;;;5.22;2.60;;;;;;;16.99;75.16;101439.69;4931682;28;20058;-71
2022/07/09 04:09:33;;;;;;;4.88;2.78;;;;;;;16.93;74.71;101425.78;4925512;28;20051;-72
2022/07/09 04:12:00;;;;;;;4.65;2.40;;;;;;;17.05;75.01;101450.03;4928152;28;20063;-73
2022/07/09 04:14:27;;;;;;;4.32;1.98;;;;;;;17.06;75.33;101456.25;4927521;28;20048;-71
2022/07/09 04:16:53;;;;;;;5.78;2.90;;;;;;;17.05;74.79;101450.03;4933600;28;20043;-73
2022/07/09 04:19:20;;;;;;;3.85;2.50;;;;;;;16.98;74.97;101450.50;4929727;28;20500;-72
2022/07/09 04:21:47;;;;;;;3.22;2.60;;;;;;;16.97;75.55;101460.31;4929911;28;20111;-71
2022/07/09 04:24:15;;;;;;;5.22;2.70;;;;;;;16.91;76.09;101441.06;4930278;28;20059;-71
2022/07/09 04:26:45;;;;;;;5.22;3.00;;;;;;;16.88;76.09;101449.25;4931066;28;20156;-72
2022/07/09 04:29:11;;;;;;;3.97;3.13;;;;;;;16.92;76.14;101448.16;4930301;28;20060;-71
2022/07/09 04:31:38;;;;;;;6.22;3.00;;;;;;;16.98;76.16;101447.81;4927869;28;20048;-71
2022/07/09 04:34:04;;;;;;;5.30;2.97;;;;;;;16.97;76.36;101457.66;4925619;28;20055;-73
2022/07/09 04:36:31;;;;;;;3.47;2.83;;;;;;;17.01;75.66;101448.47;4929525;28;20413;-71
2022/07/09 04:38:58;;;;;;;4.63;3.30;;;;;;;17.10;75.28;101453.31;4931647;28;20523;-71
2022/07/09 04:41:24;;;;;;;5.50;3.45;;;;;;;17.09;75.41;101453.41;4928057;28;20060;-71
2022/07/09 04:43:51;;;;;;;4.75;3.53;;;;;;;17.05;75.85;101447.34;4933748;28;20107;-72
2022/07/09 04:46:18;;;;;;;6.03;3.60;;;;;;;17.12;75.66;101448.75;4929303;28;20051;-71
2022/07/09 04:48:44;;;;;;;4.97;2.95;;;;;;;17.25;75.47;101448.03;4928137;28;20515;-71
2022/07/09 04:51:11;;;;;;;5.32;3.10;;;;;;;17.39;74.31;101448.94;4929957;28;20480;-73
2022/07/09 04:53:38;;;;;;;6.28;3.08;;;;;;;17.43;74.27;101457.69;4928600;28;20450;-72
2022/07/09 04:56:06;;;;;;;5.68;3.15;;;;;;;17.49;74.11;101455.47;4931400;28;20353;-70
2022/07/09 04:58:33;;;;;;;3.50;2.80;;;;;;;17.47;73.57;101437.81;4926137;28;20050;-71
2022/07/09 05:01:01;;;;;;;5.57;2.88;;;;;;;17.63;73.52;101449.31;4929550;28;20060;-71
2022/07/09 05:03:27;;;;;;;5.43;3.17;;;;;;;17.63;73.44;101446.63;4927030;28;20130;-71
2022/07/09 05:05:54;;;;;;;3.63;2.88;;;;;;;17.64;73.84;101445.72;4921866;28;20107;-72
2022/07/09 05:08:21;;;;;;;6.88;3.40;;;;;;;17.62;73.48;101431.53;4929784;28;20048;-72
2022/07/09 05:10:47;;;;;;;6.20;3.20;;;;;;;17.73;73.31;101444.31;4922174;28;20051;-71
2022/07/09 05:13:14;;;;;;;6.72;3.60;;;;;;;17.74;73.06;101448.72;4927339;28;20075;-73
2022/07/09 05:15:41;;;;;;;4.82;3.58;;;;;;;17.70;73.06;101437.31;4928016;28;20055;-74
2022/07/09 05:18:08;;;;;;;6.03;4.20;;;;;;;17.75;73.37;101440.59;4929267;28;20089;-70
2022/07/09 05:20:34;;;;;;;7.28;4.15;;;;;;;17.81;72.91;101445.56;4926764;28;20087;-72
2022/07/09 05:23:01;;;;;;;6.70;4.35;;;;;;;17.71;72.51;101416.75;4934436;28;20043;-73
2022/07/09 05:25:28;;;;;;;9.93;4.28;;;;;;;17.84;73.06;101436.47;4921994;28;20127;-72
2022/07/09 05:27:54;;;;;;;9.50;4.22;;;;;;;17.86;73.11;101424.72;4923167;28;20056;-71
2022/07/09 05:30:21;;;;;;;9.57;4.80;;;;;;;17.92;72.09;101426.16;4928714;28;20460;-72
2022/07/09 05:32:48;;;;;;;7.22;5.07;;;;;;;18.03;71.72;101438.91;4930796;28;20056;-73
2022/07/09 05:35:14;;;;;;;5.90;4.72;;;;;;;18.05;71.31;101443.22;4929057;28;20043;-71
2022/07/09 05:37:42;;;;;;;8.25;4.60;;;;;;;18.10;71.48;101438.41;4926348;28;20413;-73
2022/07/09 05:40:10;;;;;;;5.43;4.50;;;;;;;18.19;71.32;101435.19;4928804;28;20047;-71
2022/07/09 05:42:37;;;;;;;5.88;4.88;;;;;;;18.27;70.53;101445.41;4926241;28;20780;-71
2022/07/09 05:45:05;;;;;;;8.68;4.07;;;;;;;18.25;70.99;101441.13;4928003;28;20457;-71
2022/07/09 05:47:31;;;;;;;11.27;5.55;;;;;;;18.17;70.43;101423.69;4930646;28;20055;-73
2022/07/09 05:49:58;;;;;;;7.88;4.82;;;;;;;18.31;70.63;101443.41;4936412;28;20055;-72
2022/07/09 05:52:25;;;;;;;7.68;4.78;;;;;;;18.34;70.69;101433.34;4931124;28;20063;-73
2022/07/09 05:54:52;;;;;;;5.78;5.05;;;;;;;18.46;70.22;101445.13;4929108;28;20055;-72
2022/07/09 05:57:18;;;;;;;8.10;5.22;;;;;;;18.54;69.66;101451.75;4924650;28;20078;-72
2022/07/09 05:59:45;;;;;;;5.70;4.57;;;;;;;18.68;69.78;101441.97;4936177;28;20134;-72
2022/07/09 06:02:12;;;;;;;6.40;4.53;;;;;;;18.86;68.32;101441.66;4931022;28;20048;-77
2022/07/09 06:04:38;;;;;;;6.68;4.65;;;;;;;18.95;68.25;101437.50;4932454;28;20072;-72
2022/07/09 06:07:05;;;;;;;8.98;4.82;;;;;;;18.98;67.44;101440.00;4930068;28;20190;-72
2022/07/09 06:09:32;;;;;;;5.85;3.95;;;;;;;19.04;67.42;101444.97;4932752;28;20059;-72
2022/07/09 06:11:59;;;;;;;6.43;3.55;;;;;;;19.16;67.21;101446.84;4927812;28;20052;-70
2022/07/09 06:14:25;;;;;;;10.27;3.70;;;;;;;19.33;66.69;101444.84;4929179;28;20058;-70
2022/07/09 06:16:55;;;;;;;9.38;3.83;;;;;;;19.52;65.57;101439.97;4941157;28;20137;-71
2022/07/09 06:19:22;;;;;;;5.90;3.72;;;;;;;19.66;65.21;101423.81;4928305;28;20055;-72
2022/07/09 06:21:50;;;;;;;7.65;3.78;;;;;;;19.98;64.68;101443.09;4930961;28;20054;-72
2022/07/09 06:24:17;;;;;;;4.68;3.55;;;;;;;20.28;63.05;101434.69;4926214;28;20107;-73
2022/07/09 06:26:46;;;;;;;6.88;4.35;;;;;;;20.58;61.83;101450.50;4927486;28;20043;-72
2022/07/09 06:29:13;;;;;;;8.40;4.40;;;;;;;20.78;60.69;101449.88;4929847;28;20107;-72
2022/07/09 06:31:40;;;;;;;9.80;3.70;;;;;;;21.01;60.05;101456.28;4932591;28;20076;-72
2022/07/09 06:34:06;;;;;;;8.23;4.35;;;;;;;21.37;58.24;101441.09;4928268;28;20554;-71
2022/07/09 06:36:33;;;;;;;6.22;3.60;;;;;;;21.57;58.19;101435.88;4927437;28;20402;-75
2022/07/09 06:41:46;;;;;;;7.95;4.10;;;;;;;21.94;56.57;101444.69;4921127;28;20102;-71
2022/07/09 06:44:12;;;;;;;8.18;3.58;;;;;;;22.19;56.41;101437.41;4923909;28;20071;-70
2022/07/09 06:46:39;;;;;;;6.50;3.15;;;;;;;22.18;56.09;101433.00;4922016;28;20103;-70
2022/07/09 06:49:06;;;;;;;5.78;3.45;;;;;;;22.06;57.44;101445.59;4927204;28;20055;-72
2022/07/09 06:51:32;;;;;;;6.35;3.40;;;;;;;21.97;57.11;101446.28;4917864;28;20048;-73
2022/07/09 06:53:59;;;;;;;6.07;3.10;;;;;;;21.90;57.90;101436.94;4919173;28;20060;-71
2022/07/09 06:56:26;;;;;;;6.93;3.40;;;;;;;22.20;58.63;101439.09;4920436;28;20465;-71
2022/07/09 06:58:52;;;;;;;5.55;3.15;;;;;;;22.64;57.55;101439.13;4917877;28;20044;-72
2022/07/09 07:01:19;;;;;;;4.47;2.90;;;;;;;23.24;54.06;101443.19;4918901;28;20044;-72
2022/07/09 07:03:46;;;;;;;6.55;3.10;;;;;;;23.83;51.78;101440.00;4921059;28;20158;-70
2022/07/09 07:06:12;;;;;;;10.07;3.72;;;;;;;24.30;49.92;101441.28;4919747;28;20556;-70
2022/07/09 07:08:39;;;;;;;5.57;3.00;;;;;;;24.62;49.92;101441.13;4916770;28;20103;-70
2022/07/09 07:11:06;;;;;;;4.82;2.60;;;;;;;24.92;48.19;101437.50;4922431;28;20517;-70
2022/07/09 07:13:32;;;;;;;6.95;2.95;;;;;;;25.14;47.93;101442.72;4920635;28;20051;-69
2022/07/09 07:15:59;;;;;;;4.95;2.40;;;;;;;24.75;49.45;101435.47;4919491;28;20071;-70
2022/07/09 07:18:26;;;;;;;6.85;2.63;;;;;;;24.74;48.59;101448.16;4919372;28;20449;-70
2022/07/09 07:20:52;;;;;;;10.65;2.72;;;;;;;24.40;49.75;101439.47;4925180;28;20122;-69
2022/07/09 07:23:20;;;;;;;4.85;2.65;;;;;;;24.42;49.94;101440.19;4926797;28;20060;-69
2022/07/09 07:25:47;;;;;;;6.82;2.90;;;;;;;24.75;48.75;101436.34;4925705;28;20048;-70
2022/07/09 07:28:14;;;;;;;5.82;2.90;;;;;;;24.93;48.38;101431.09;4927942;28;20557;-71
2022/07/09 07:30:40;;;;;;;8.02;3.05;;;;;;;24.54;49.09;101442.84;4929401;28;20556;-70
2022/07/09 07:33:07;;;;;;;8.57;3.28;;;;;;;24.27;49.29;101438.00;4930686;28;20397;-71
2022/07/09 07:35:34;;;;;;;7.32;3.17;;;;;;;24.00;50.15;101435.81;4920613;28;20502;-70
2022/07/09 07:38:01;;;;;;;5.05;2.97;;;;;;;23.75;50.64;101437.97;4923831;28;20051;-72
2022/07/09 07:40:28;;;;;;;7.75;3.97;;;;;;;23.09;51.94;101430.97;4926189;28;20103;-71
2022/07/09 07:42:54;;;;;;;6.78;3.10;;;;;;;22.50;53.87;101427.72;4927869;28;20068;-73
2022/07/09 07:45:24;;;;;;;5.30;2.83;;;;;;;22.39;53.73;101428.56;4926948;28;20059;-70
2022/07/09 07:47:54;;;;;;;8.15;2.88;;;;;;;22.39;54.54;101436.66;4931354;28;20067;-70
2022/07/09 07:50:22;;;;;;;8.55;3.30;;;;;;;22.42;54.65;101433.72;4927364;28;20135;-71
2022/07/09 07:52:50;;;;;;;5.78;3.03;;;;;;;22.50;54.19;101433.13;4931002;28;20059;-71
2022/07/09 07:55:16;;;;;;;10.00;3.20;;;;;;;22.59;54.14;101426.97;4927966;28;20043;-71
2022/07/09 07:57:43;;;;;;;9.55;3.38;;;;;;;23.15;52.67;101429.56;4928900;28;20468;-70
2022/07/09 08:00:10;;;;;;;7.03;2.78;;;;;;;23.57;50.94;101426.00;4929109;28;20056;-72
2022/07/09 08:02:37;;;;;;;6.63;3.30;;;;;;;23.84;50.54;101414.66;4932517;28;20063;-70
2022/07/09 08:05:04;;;;;;;5.22;2.50;;;;;;;24.09;50.32;101427.75;4930167;28;20143;-69
2022/07/09 08:07:31;;;;;;;6.03;3.42;;;;;;;24.02;48.49;101420.31;4928793;28;20523;-69
2022/07/09 08:09:58;;;;;;;4.85;2.90;;;;;;;23.48;50.10;101415.94;4929445;28;20075;-70
2022/07/09 08:12:26;;;;;;;6.15;3.67;;;;;;;23.19;50.42;101423.78;4931312;28;20054;-70
2022/07/09 08:14:53;;;;;;;6.30;2.97;;;;;;;23.11;50.84;101411.94;4931781;28;20134;-72
2022/07/09 08:17:20;;;;;;;7.30;3.33;;;;;;;23.11;51.44;101414.63;4928665;28;20060;-71
2022/07/09 08:19:47;;;;;;;10.02;3.28;;;;;;;22.92;51.52;101372.06;4932795;28;20050;-71
2022/07/09 08:22:13;;;;;;;6.85;4.10;;;;;;;23.31;50.91;101419.19;4931115;28;20044;-74
2022/07/09 08:24:40;;;;;;;6.55;3.15;;;;;;;23.38;50.93;101418.56;4929331;28;20052;-70
2022/07/09 08:27:07;;;;;;;7.15;3.60;;;;;;;23.14;50.19;101412.50;4929802;28;20074;-70
2022/07/09 08:29:35;;;;;;;8.30;3.90;;;;;;;23.05;51.97;101388.97;4930779;28;20055;-69
2022/07/09 08:32:02;;;;;;;4.55;3.47;;;;;;;23.01;47.81;101414.53;4933203;28;20059;-70
2022/07/09 08:34:29;;;;;;;5.70;3.47;;;;;;;23.02;48.75;101411.69;4926602;28;20122;-69
2022/07/09 08:36:56;;;;;;;5.05;3.65;;;;;;;23.15;48.00;101402.56;4924709;28;20051;-72
2022/07/09 08:39:22;;;;;;;4.57;3.45;;;;;;;23.21;48.21;101402.91;4926736;28;20162;-70
2022/07/09 08:41:50;;;;;;;5.03;3.72;;;;;;;23.22;47.57;101385.72;4929001;28;20393;-71
2022/07/09 08:44:19;;;;;;;6.75;3.35;;;;;;;23.30;47.42;101406.66;4930257;28;20139;-70
2022/07/09 08:46:46;;;;;;;3.78;2.53;;;;;;;23.01;46.45;101374.84;4924648;28;20043;-69
2022/07/09 08:49:15;;;;;;;6.63;2.63;;;;;;;23.14;47.36;101395.47;4922234;28;20460;-68
2022/07/09 08:51:44;;;;;;;3.50;2.67;;;;;;;23.14;46.82;101396.28;4925559;28;20051;-70
2022/07/09 08:54:11;;;;;;;3.30;2.60;;;;;;;23.16;46.55;101407.84;4923680;28;20890;-70
2022/07/09 08:56:40;;;;;;;4.45;2.28;;;;;;;23.01;46.06;101379.41;4918834;28;20059;-69
2022/07/09 08:59:06;;;;;;;6.25;2.92;;;;;;;23.25;47.17;101398.97;4929544;28;20417;-69
2022/07/09 09:01:34;;;;;;;4.07;2.70;;;;;;;23.19;47.28;101377.84;4928318;28;20052;-71
2022/07/09 09:04:01;;;;;;;2.97;2.33;;;;;;;23.20;47.05;101400.34;4924663;28;20070;-69
2022/07/09 09:06:28;;;;;;;2.60;1.90;;;;;;;23.41;46.13;101372.34;4926264;28;20044;-69
2022/07/09 09:08:55;;;;;;;2.25;1.80;;;;;;;23.83;45.32;101377.78;4926200;28;20060;-73
2022/07/09 09:11:26;;;;;;;3.17;2.25;;;;;;;24.52;44.32;101393.38;4925947;28;20064;-71
2022/07/09 09:13:54;;;;;;;2.58;1.50;;;;;;;24.89;42.55;101351.09;4935090;28;20268;-70
2022/07/09 09:16:22;;;;;;;4.35;1.90;;;;;;;25.22;42.23;101384.22;4933706;28;20103;-70
2022/07/09 09:18:51;;;;;;;6.53;2.00;;;;;;;25.01;42.22;101358.13;4938445;28;20047;-70
2022/07/09 09:21:22;;;;;;;4.15;1.48;;;;;;;24.65;42.20;101354.22;4932185;28;20044;-69
2022/07/09 09:23:52;;;;;;;2.70;1.33;;;;;;;24.41;42.75;101384.34;4934712;28;20046;-70
2022/07/09 09:26:21;;;;;;;3.10;1.45;;;;;;;24.08;43.18;101373.81;4933108;28;20059;-71
2022/07/09 09:29:01;;;;;;;2.42;1.17;;;;;;;24.00;43.85;101376.31;4937135;28;20052;-72
2022/07/09 09:31:33;;;;;;;4.45;1.58;;;;;;;23.79;44.62;101377.19;4937608;28;20070;-71
2022/07/09 09:34:08;;;;;;;2.97;1.52;;;;;;;23.90;44.37;101357.34;4937867;28;20059;-69
2022/07/09 09:36:40;;;;;;;1.65;1.23;;;;;;;23.91;44.28;101369.88;4931155;28;20058;-70
2022/07/09 09:39:29;;;;;;;2.13;1.60;;;;;;;23.85;44.70;101364.97;4930322;28;20058;-70
2022/07/09 09:41:59;;;;;;;3.72;1.55;;;;;;;23.82;45.27;101359.84;4932808;28;20051;-72
2022/07/09 09:44:29;;;;;;;2.17;1.40;;;;;;;23.74;45.57;101346.13;4933651;28;20091;-71
2022/07/09 09:46:57;;;;;;;2.10;1.50;;;;;;;23.90;44.94;101353.78;4939998;28;20577;-70
2022/07/09 09:49:24;;;;;;;2.88;1.60;;;;;;;24.12;44.47;101361.69;4935988;28;20051;-71
2022/07/09 09:51:53;;;;;;;1.45;1.00;;;;;;;24.17;42.25;101364.00;4937667;28;20043;-71
2022/07/09 09:54:22;;;;;;;2.97;1.02;;;;;;;24.25;42.30;101356.94;4931918;28;20756;-71
2022/07/09 09:56:49;;;;;;;2.30;0.98;;;;;;;24.29;41.76;101352.09;4929546;29;20073;-70
2022/07/09 09:59:16;;;;;;;1.65;0.95;;;;;;;24.26;41.73;101320.75;4933775;28;20050;-72
2022/07/09 10:01:44;;;;;;;1.90;1.30;;;;;;;24.58;41.56;101350.31;4932014;28;20090;-70
2022/07/09 10:04:13;;;;;;;2.90;1.55;;;;;;;24.58;42.42;101347.63;4931590;28;20055;-71
2022/07/09 10:06:40;;;;;;;1.55;1.30;;;;;;;24.73;42.02;101338.09;4935766;28;20047;-70
2022/07/09 10:09:11;;;;;;;2.45;1.70;;;;;;;24.71;41.68;101352.81;4933031;28;20076;-71
2022/07/09 10:11:41;;;;;;;2.75;1.85;;;;;;;24.31;42.62;101350.13;4930663;28;20134;-70
2022/07/09 10:14:34;;;;;;;5.47;2.30;;;;;;;24.10;43.40;101329.34;4935154;28;20428;-70
2022/07/09 10:17:15;;;;;;;3.53;1.92;;;;;;;24.22;43.22;101348.22;4936104;28;20718;-70
2022/07/09 10:19:57;;;;;;;4.15;2.33;;;;;;;24.40;43.11;101344.72;4938200;28;20059;-70
2022/07/09 10:22:41;;;;;;;5.43;2.53;;;;;;;24.54;43.23;101342.66;4935696;28;20051;-70
2022/07/09 10:25:10;;;;;;;3.80;2.35;;;;;;;24.88;43.08;101337.69;4928003;28;20076;-72
2022/07/09 10:27:48;;;;;;;5.10;2.80;;;;;;;25.27;42.17;101333.16;4937410;28;20066;-71
2022/07/09 10:30:28;;;;;;;4.00;2.60;;;;;;;25.12;41.88;101325.47;4934222;28;20115;-70
2022/07/09 10:33:06;;;;;;;6.15;3.00;;;;;;;24.72;42.61;101324.69;4934184;28;20086;-70
2022/07/09 10:35:44;;;;;;;5.70;2.95;;;;;;;24.64;42.99;101317.28;4936013;28;20144;-69
2022/07/09 10:38:12;;;;;;;3.35;3.03;;;;;;;24.90;43.33;101317.56;4930391;28;20115;-72
2022/07/09 10:40:41;;;;;;;6.05;2.95;;;;;;;25.18;42.40;101310.50;4938759;28;20052;-71
2022/07/09 10:43:08;;;;;;;4.20;2.67;;;;;;;25.40;41.80;101312.00;4935785;28;20452;-70
2022/07/09 10:45:43;;;;;;;4.80;3.20;;;;;;;25.29;41.42;101304.06;4932230;28;20064;-71
2022/07/09 10:48:12;;;;;;;3.92;3.17;;;;;;;25.35;41.88;101304.31;4935732;28;20063;-70
2022/07/09 10:50:43;;;;;;;4.93;3.33;;;;;;;25.13;41.19;101318.19;4932186;28;20488;-70
2022/07/09 10:53:11;;;;;;;3.45;2.85;;;;;;;25.28;40.84;101289.63;4934832;28;20051;-72
2022/07/09 10:55:43;;;;;;;4.47;3.10;;;;;;;25.51;40.08;101269.31;4925203;28;20637;-70
2022/07/09 10:58:20;;;;;;;3.55;2.90;;;;;;;25.67;40.28;101268.72;4932440;28;20079;-71
2022/07/09 11:01:00;;;;;;;4.63;3.42;;;;;;;25.68;40.39;101289.41;4931820;28;20485;-70
2022/07/09 11:03:29;;;;;;;5.80;2.90;;;;;;;25.41;41.05;101292.88;4932974;28;20411;-70
2022/07/09 11:05:56;;;;;;;3.30;3.00;;;;;;;25.11;41.94;101291.22;4933074;28;20047;-69
2022/07/09 11:08:24;;;;;;;5.35;3.30;;;;;;;24.86;42.42;101283.66;4929816;28;20051;-71
2022/07/09 11:10:51;;;;;;;4.43;2.83;;;;;;;24.67;43.18;101286.34;4927871;28;20131;-70
2022/07/09 11:13:23;;;;;;;5.50;3.15;;;;;;;24.59;43.79;101281.63;4934778;28;20063;-70
2022/07/09 11:15:50;;;;;;;5.50;3.10;;;;;;;24.62;43.28;101275.09;4932621;28;20051;-73
2022/07/09 11:18:17;;;;;;;4.78;3.05;;;;;;;24.82;43.18;101274.09;4932058;28;20130;-70
2022/07/09 11:20:46;;;;;;;7.18;3.15;;;;;;;24.91;42.88;101269.66;4928864;28;20119;-71
2022/07/09 11:23:14;;;;;;;5.90;3.30;;;;;;;25.34;43.03;101261.09;4932873;28;20055;-71
2022/07/09 11:25:42;;;;;;;2.78;2.28;;;;;;;25.69;39.72;101252.28;4922600;28;20046;-71
2022/07/09 11:28:21;;;;;;;2.40;2.20;;;;;;;25.77;39.58;101250.56;4932454;28;20658;-70
2022/07/09 11:30:59;;;;;;;5.37;2.20;;;;;;;25.78;40.03;101246.84;4927454;28;20081;-70